<?xml version="1.0" encoding="UTF-8" standalone="no" ?>
<gpx xmlns="http://www.topografix.com/GPX/1/1" xmlns:xsi="http://www.w3.org/2001/XMLSchema-instance" xsi:schemaLocation="http://www.topografix.com/GPX/1/1 http://www.topografix.com/GPX/1/1/gpx.xsd" version="1.1" creator="VisuGPX - https://www.visugpx.com">
  <metadata>
    <name>Boucle de l'Abbaye de Vaucelles à Masnières par le canal et les plaines</name>
  </metadata>
  <wpt lat="50.07712" lon="3.21744">
    <ele>73.5</ele>
    <name><![CDATA[Pont de Vaucelles]]></name>
  </wpt>
  <wpt lat="50.0939" lon="3.24299">
    <ele>69.2</ele>
    <name><![CDATA[Écluse de Vinchy]]></name>
  </wpt>
  <wpt lat="50.10669" lon="3.23386">
    <ele>62</ele>
    <name><![CDATA[écluse saint Waast - pont du canal sur l'Escaut]]></name>
  </wpt>
  <wpt lat="50.11427" lon="3.20655">
    <ele>59.5</ele>
    <name><![CDATA[Passerelle sur l'Escaut]]></name>
  </wpt>
  <wpt lat="50.11301" lon="3.20591">
    <ele>57</ele>
    <name><![CDATA[Ruelle de Bracheux]]></name>
  </wpt>
  <wpt lat="50.11201" lon="3.20508">
    <ele>58.8</ele>
    <name><![CDATA[Chemin entre les maisons]]></name>
  </wpt>
  <wpt lat="50.11084" lon="3.20518">
    <ele>64.5</ele>
    <name><![CDATA[Allée des Bleuets]]></name>
  </wpt>
  <wpt lat="50.11006" lon="3.20458">
    <ele>65</ele>
    <name><![CDATA[Rue des Coquelicots ]]></name>
  </wpt>
  <wpt lat="50.10718" lon="3.20676">
    <ele>66.4</ele>
    <name><![CDATA[Chemin piéton/vélo ]]></name>
  </wpt>
  <wpt lat="50.10605" lon="3.20795">
    <ele>65.8</ele>
    <name><![CDATA[Rond-Point de Masnières]]></name>
  </wpt>
  <wpt lat="50.09302" lon="3.21431">
    <ele>101.3</ele>
    <name><![CDATA[Chemin du bois Laleau]]></name>
  </wpt>
  <wpt lat="50.07896" lon="3.20199">
    <ele>108</ele>
    <name><![CDATA[D96 à gauche]]></name>
  </wpt>
  <trk>
    <name><![CDATA[Boucle de l'Abbaye de Vaucelles à Masnières par le canal et les plaines]]></name>
    <trkseg>
      <trkpt lat="50.07594" lon="3.22119">
        <ele>76</ele>
        <time>2021-02-19T15:28:30+01:00</time>
      </trkpt>
      <trkpt lat="50.07589" lon="3.2214">
        <ele>76</ele>
        <time>2021-02-19T15:28:35+01:00</time>
      </trkpt>
      <trkpt lat="50.07526" lon="3.22089">
        <ele>80</ele>
        <time>2021-02-19T15:28:40+01:00</time>
      </trkpt>
      <trkpt lat="50.07499" lon="3.22059">
        <ele>81</ele>
        <time>2021-02-19T15:28:45+01:00</time>
      </trkpt>
      <trkpt lat="50.07478" lon="3.22025">
        <ele>81</ele>
        <time>2021-02-19T15:28:50+01:00</time>
      </trkpt>
      <trkpt lat="50.07475" lon="3.22007">
        <ele>80</ele>
        <time>2021-02-19T15:28:55+01:00</time>
      </trkpt>
      <trkpt lat="50.07479" lon="3.21992">
        <ele>79</ele>
        <time>2021-02-19T15:29:00+01:00</time>
      </trkpt>
      <trkpt lat="50.07548" lon="3.21925">
        <ele>74</ele>
        <time>2021-02-19T15:29:05+01:00</time>
      </trkpt>
      <trkpt lat="50.07651" lon="3.21796">
        <ele>75</ele>
        <time>2021-02-19T15:29:10+01:00</time>
      </trkpt>
      <trkpt lat="50.07681" lon="3.21762">
        <ele>75</ele>
        <time>2021-02-19T15:29:15+01:00</time>
      </trkpt>
      <trkpt lat="50.07712" lon="3.21744">
        <ele>74</ele>
        <time>2021-02-19T15:29:20+01:00</time>
      </trkpt>
      <trkpt lat="50.07736" lon="3.2183">
        <ele>72</ele>
        <time>2021-02-19T15:29:25+01:00</time>
      </trkpt>
      <trkpt lat="50.0775" lon="3.21892">
        <ele>71</ele>
        <time>2021-02-19T15:29:30+01:00</time>
      </trkpt>
      <trkpt lat="50.07767" lon="3.21923">
        <ele>71</ele>
        <time>2021-02-19T15:29:35+01:00</time>
      </trkpt>
      <trkpt lat="50.07896" lon="3.21979">
        <ele>71</ele>
        <time>2021-02-19T15:29:40+01:00</time>
      </trkpt>
      <trkpt lat="50.07927" lon="3.21981">
        <ele>72</ele>
        <time>2021-02-19T15:29:45+01:00</time>
      </trkpt>
      <trkpt lat="50.08212" lon="3.21912">
        <ele>71</ele>
        <time>2021-02-19T15:29:50+01:00</time>
      </trkpt>
      <trkpt lat="50.0826" lon="3.21901">
        <ele>71</ele>
        <time>2021-02-19T15:29:55+01:00</time>
      </trkpt>
      <trkpt lat="50.0832" lon="3.21918">
        <ele>69</ele>
        <time>2021-02-19T15:30:00+01:00</time>
      </trkpt>
      <trkpt lat="50.08379" lon="3.21968">
        <ele>70</ele>
        <time>2021-02-19T15:30:05+01:00</time>
      </trkpt>
      <trkpt lat="50.08571" lon="3.22231">
        <ele>70</ele>
        <time>2021-02-19T15:30:10+01:00</time>
      </trkpt>
      <trkpt lat="50.08601" lon="3.22299">
        <ele>70</ele>
        <time>2021-02-19T15:30:15+01:00</time>
      </trkpt>
      <trkpt lat="50.08628" lon="3.22416">
        <ele>70</ele>
        <time>2021-02-19T15:30:20+01:00</time>
      </trkpt>
      <trkpt lat="50.08728" lon="3.22903">
        <ele>70</ele>
        <time>2021-02-19T15:30:25+01:00</time>
      </trkpt>
      <trkpt lat="50.09119" lon="3.2371">
        <ele>72</ele>
        <time>2021-02-19T15:30:30+01:00</time>
      </trkpt>
      <trkpt lat="50.09247" lon="3.23963">
        <ele>73</ele>
        <time>2021-02-19T15:30:35+01:00</time>
      </trkpt>
      <trkpt lat="50.09282" lon="3.2404">
        <ele>73</ele>
        <time>2021-02-19T15:30:40+01:00</time>
      </trkpt>
      <trkpt lat="50.09285" lon="3.24075">
        <ele>73</ele>
        <time>2021-02-19T15:30:45+01:00</time>
      </trkpt>
      <trkpt lat="50.09368" lon="3.24249">
        <ele>69</ele>
        <time>2021-02-19T15:30:50+01:00</time>
      </trkpt>
      <trkpt lat="50.0939" lon="3.24299">
        <ele>69</ele>
        <time>2021-02-19T15:30:55+01:00</time>
      </trkpt>
      <trkpt lat="50.09429" lon="3.2425">
        <ele>67</ele>
        <time>2021-02-19T15:31:00+01:00</time>
      </trkpt>
      <trkpt lat="50.09477" lon="3.24358">
        <ele>70</ele>
        <time>2021-02-19T15:31:05+01:00</time>
      </trkpt>
      <trkpt lat="50.09514" lon="3.24409">
        <ele>71</ele>
        <time>2021-02-19T15:31:10+01:00</time>
      </trkpt>
      <trkpt lat="50.09829" lon="3.24746">
        <ele>68</ele>
        <time>2021-02-19T15:31:15+01:00</time>
      </trkpt>
      <trkpt lat="50.0988" lon="3.24786">
        <ele>69</ele>
        <time>2021-02-19T15:31:20+01:00</time>
      </trkpt>
      <trkpt lat="50.09936" lon="3.24801">
        <ele>68</ele>
        <time>2021-02-19T15:31:25+01:00</time>
      </trkpt>
      <trkpt lat="50.09982" lon="3.2478">
        <ele>68</ele>
        <time>2021-02-19T15:31:30+01:00</time>
      </trkpt>
      <trkpt lat="50.10071" lon="3.24716">
        <ele>68</ele>
        <time>2021-02-19T15:31:35+01:00</time>
      </trkpt>
      <trkpt lat="50.10095" lon="3.2469">
        <ele>67</ele>
        <time>2021-02-19T15:31:40+01:00</time>
      </trkpt>
      <trkpt lat="50.10107" lon="3.2467">
        <ele>67</ele>
        <time>2021-02-19T15:31:45+01:00</time>
      </trkpt>
      <trkpt lat="50.10511" lon="3.24298">
        <ele>71</ele>
        <time>2021-02-19T15:31:50+01:00</time>
      </trkpt>
      <trkpt lat="50.10557" lon="3.24217">
        <ele>72</ele>
        <time>2021-02-19T15:31:55+01:00</time>
      </trkpt>
      <trkpt lat="50.10603" lon="3.24103">
        <ele>69</ele>
        <time>2021-02-19T15:32:00+01:00</time>
      </trkpt>
      <trkpt lat="50.10647" lon="3.2396">
        <ele>67</ele>
        <time>2021-02-19T15:32:05+01:00</time>
      </trkpt>
      <trkpt lat="50.10658" lon="3.2383">
        <ele>63</ele>
        <time>2021-02-19T15:32:10+01:00</time>
      </trkpt>
      <trkpt lat="50.10668" lon="3.23692">
        <ele>62</ele>
        <time>2021-02-19T15:32:15+01:00</time>
      </trkpt>
      <trkpt lat="50.10651" lon="3.2362">
        <ele>62</ele>
        <time>2021-02-19T15:32:20+01:00</time>
      </trkpt>
      <trkpt lat="50.10655" lon="3.23557">
        <ele>62</ele>
        <time>2021-02-19T15:32:25+01:00</time>
      </trkpt>
      <trkpt lat="50.10669" lon="3.23386">
        <ele>62</ele>
        <time>2021-02-19T15:32:30+01:00</time>
      </trkpt>
      <trkpt lat="50.10681" lon="3.2319">
        <ele>64</ele>
        <time>2021-02-19T15:32:35+01:00</time>
      </trkpt>
      <trkpt lat="50.10683" lon="3.23139">
        <ele>65</ele>
        <time>2021-02-19T15:32:40+01:00</time>
      </trkpt>
      <trkpt lat="50.10704" lon="3.23067">
        <ele>65</ele>
        <time>2021-02-19T15:32:45+01:00</time>
      </trkpt>
      <trkpt lat="50.10716" lon="3.22945">
        <ele>63</ele>
        <time>2021-02-19T15:32:50+01:00</time>
      </trkpt>
      <trkpt lat="50.10729" lon="3.22769">
        <ele>61</ele>
        <time>2021-02-19T15:32:55+01:00</time>
      </trkpt>
      <trkpt lat="50.10711" lon="3.22433">
        <ele>59</ele>
        <time>2021-02-19T15:33:00+01:00</time>
      </trkpt>
      <trkpt lat="50.10692" lon="3.22156">
        <ele>60</ele>
        <time>2021-02-19T15:33:05+01:00</time>
      </trkpt>
      <trkpt lat="50.1069" lon="3.22058">
        <ele>61</ele>
        <time>2021-02-19T15:33:10+01:00</time>
      </trkpt>
      <trkpt lat="50.10702" lon="3.21967">
        <ele>61</ele>
        <time>2021-02-19T15:33:15+01:00</time>
      </trkpt>
      <trkpt lat="50.1073" lon="3.21886">
        <ele>61</ele>
        <time>2021-02-19T15:33:20+01:00</time>
      </trkpt>
      <trkpt lat="50.10768" lon="3.2182">
        <ele>61</ele>
        <time>2021-02-19T15:33:25+01:00</time>
      </trkpt>
      <trkpt lat="50.10848" lon="3.2174">
        <ele>62</ele>
        <time>2021-02-19T15:33:30+01:00</time>
      </trkpt>
      <trkpt lat="50.11032" lon="3.21581">
        <ele>60</ele>
        <time>2021-02-19T15:33:35+01:00</time>
      </trkpt>
      <trkpt lat="50.11083" lon="3.21558">
        <ele>62</ele>
        <time>2021-02-19T15:33:40+01:00</time>
      </trkpt>
      <trkpt lat="50.11155" lon="3.21494">
        <ele>60</ele>
        <time>2021-02-19T15:33:45+01:00</time>
      </trkpt>
      <trkpt lat="50.11196" lon="3.21435">
        <ele>59</ele>
        <time>2021-02-19T15:33:50+01:00</time>
      </trkpt>
      <trkpt lat="50.11241" lon="3.21297">
        <ele>60</ele>
        <time>2021-02-19T15:33:55+01:00</time>
      </trkpt>
      <trkpt lat="50.11304" lon="3.2103">
        <ele>61</ele>
        <time>2021-02-19T15:34:00+01:00</time>
      </trkpt>
      <trkpt lat="50.11335" lon="3.20899">
        <ele>59</ele>
        <time>2021-02-19T15:34:05+01:00</time>
      </trkpt>
      <trkpt lat="50.11366" lon="3.20782">
        <ele>59</ele>
        <time>2021-02-19T15:34:10+01:00</time>
      </trkpt>
      <trkpt lat="50.11408" lon="3.20692">
        <ele>60</ele>
        <time>2021-02-19T15:34:15+01:00</time>
      </trkpt>
      <trkpt lat="50.11427" lon="3.20655">
        <ele>60</ele>
        <time>2021-02-19T15:34:20+01:00</time>
      </trkpt>
      <trkpt lat="50.11401" lon="3.20627">
        <ele>59</ele>
        <time>2021-02-19T15:34:25+01:00</time>
      </trkpt>
      <trkpt lat="50.11313" lon="3.20557">
        <ele>57</ele>
        <time>2021-02-19T15:34:30+01:00</time>
      </trkpt>
      <trkpt lat="50.11301" lon="3.20591">
        <ele>57</ele>
        <time>2021-02-19T15:34:35+01:00</time>
      </trkpt>
      <trkpt lat="50.11201" lon="3.20508">
        <ele>59</ele>
        <time>2021-02-19T15:34:40+01:00</time>
      </trkpt>
      <trkpt lat="50.11191" lon="3.20525">
        <ele>59</ele>
        <time>2021-02-19T15:34:45+01:00</time>
      </trkpt>
      <trkpt lat="50.11166" lon="3.20514">
        <ele>61</ele>
        <time>2021-02-19T15:34:50+01:00</time>
      </trkpt>
      <trkpt lat="50.11155" lon="3.20507">
        <ele>61</ele>
        <time>2021-02-19T15:34:55+01:00</time>
      </trkpt>
      <trkpt lat="50.1115" lon="3.20512">
        <ele>62</ele>
        <time>2021-02-19T15:35:00+01:00</time>
      </trkpt>
      <trkpt lat="50.11126" lon="3.20495">
        <ele>63</ele>
        <time>2021-02-19T15:35:05+01:00</time>
      </trkpt>
      <trkpt lat="50.11112" lon="3.20485">
        <ele>64</ele>
        <time>2021-02-19T15:35:10+01:00</time>
      </trkpt>
      <trkpt lat="50.11094" lon="3.20487">
        <ele>64</ele>
        <time>2021-02-19T15:35:15+01:00</time>
      </trkpt>
      <trkpt lat="50.11084" lon="3.20518">
        <ele>65</ele>
        <time>2021-02-19T15:35:20+01:00</time>
      </trkpt>
      <trkpt lat="50.11077" lon="3.20501">
        <ele>65</ele>
        <time>2021-02-19T15:35:25+01:00</time>
      </trkpt>
      <trkpt lat="50.11006" lon="3.20458">
        <ele>66</ele>
        <time>2021-02-19T15:35:30+01:00</time>
      </trkpt>
      <trkpt lat="50.1096" lon="3.20506">
        <ele>66</ele>
        <time>2021-02-19T15:35:35+01:00</time>
      </trkpt>
      <trkpt lat="50.10939" lon="3.20594">
        <ele>64</ele>
        <time>2021-02-19T15:35:40+01:00</time>
      </trkpt>
      <trkpt lat="50.10876" lon="3.20687">
        <ele>65</ele>
        <time>2021-02-19T15:35:45+01:00</time>
      </trkpt>
      <trkpt lat="50.10859" lon="3.20698">
        <ele>65</ele>
        <time>2021-02-19T15:35:50+01:00</time>
      </trkpt>
      <trkpt lat="50.10745" lon="3.20698">
        <ele>66</ele>
        <time>2021-02-19T15:35:55+01:00</time>
      </trkpt>
      <trkpt lat="50.10718" lon="3.20676">
        <ele>66</ele>
        <time>2021-02-19T15:36:00+01:00</time>
      </trkpt>
      <trkpt lat="50.10676" lon="3.20752">
        <ele>64</ele>
        <time>2021-02-19T15:36:05+01:00</time>
      </trkpt>
      <trkpt lat="50.1065" lon="3.20749">
        <ele>64</ele>
        <time>2021-02-19T15:36:10+01:00</time>
      </trkpt>
      <trkpt lat="50.10639" lon="3.20742">
        <ele>65</ele>
        <time>2021-02-19T15:36:15+01:00</time>
      </trkpt>
      <trkpt lat="50.10631" lon="3.20759">
        <ele>65</ele>
        <time>2021-02-19T15:36:20+01:00</time>
      </trkpt>
      <trkpt lat="50.10611" lon="3.20761">
        <ele>65</ele>
        <time>2021-02-19T15:36:25+01:00</time>
      </trkpt>
      <trkpt lat="50.10605" lon="3.20795">
        <ele>65</ele>
        <time>2021-02-19T15:36:30+01:00</time>
      </trkpt>
      <trkpt lat="50.10472" lon="3.20787">
        <ele>68</ele>
        <time>2021-02-19T15:36:35+01:00</time>
      </trkpt>
      <trkpt lat="50.10389" lon="3.20742">
        <ele>69</ele>
        <time>2021-02-19T15:36:40+01:00</time>
      </trkpt>
      <trkpt lat="50.10356" lon="3.20745">
        <ele>69</ele>
        <time>2021-02-19T15:36:45+01:00</time>
      </trkpt>
      <trkpt lat="50.10307" lon="3.20819">
        <ele>69</ele>
        <time>2021-02-19T15:36:50+01:00</time>
      </trkpt>
      <trkpt lat="50.10291" lon="3.20842">
        <ele>69</ele>
        <time>2021-02-19T15:36:55+01:00</time>
      </trkpt>
      <trkpt lat="50.10232" lon="3.20877">
        <ele>69</ele>
        <time>2021-02-19T15:37:00+01:00</time>
      </trkpt>
      <trkpt lat="50.10173" lon="3.20951">
        <ele>73</ele>
        <time>2021-02-19T15:37:05+01:00</time>
      </trkpt>
      <trkpt lat="50.10119" lon="3.20964">
        <ele>79</ele>
        <time>2021-02-19T15:37:10+01:00</time>
      </trkpt>
      <trkpt lat="50.10068" lon="3.21015">
        <ele>80</ele>
        <time>2021-02-19T15:37:15+01:00</time>
      </trkpt>
      <trkpt lat="50.1002" lon="3.21096">
        <ele>80</ele>
        <time>2021-02-19T15:37:20+01:00</time>
      </trkpt>
      <trkpt lat="50.09959" lon="3.21148">
        <ele>82</ele>
        <time>2021-02-19T15:37:25+01:00</time>
      </trkpt>
      <trkpt lat="50.09926" lon="3.21165">
        <ele>83</ele>
        <time>2021-02-19T15:37:30+01:00</time>
      </trkpt>
      <trkpt lat="50.09817" lon="3.2117">
        <ele>87</ele>
        <time>2021-02-19T15:37:35+01:00</time>
      </trkpt>
      <trkpt lat="50.09698" lon="3.21171">
        <ele>91</ele>
        <time>2021-02-19T15:37:40+01:00</time>
      </trkpt>
      <trkpt lat="50.09614" lon="3.21195">
        <ele>95</ele>
        <time>2021-02-19T15:37:45+01:00</time>
      </trkpt>
      <trkpt lat="50.09467" lon="3.21197">
        <ele>98</ele>
        <time>2021-02-19T15:37:50+01:00</time>
      </trkpt>
      <trkpt lat="50.09402" lon="3.21235">
        <ele>100</ele>
        <time>2021-02-19T15:37:55+01:00</time>
      </trkpt>
      <trkpt lat="50.09351" lon="3.21298">
        <ele>99</ele>
        <time>2021-02-19T15:38:00+01:00</time>
      </trkpt>
      <trkpt lat="50.09333" lon="3.2134">
        <ele>99</ele>
        <time>2021-02-19T15:38:05+01:00</time>
      </trkpt>
      <trkpt lat="50.09302" lon="3.21431">
        <ele>101</ele>
        <time>2021-02-19T15:38:10+01:00</time>
      </trkpt>
      <trkpt lat="50.08373" lon="3.20638">
        <ele>125</ele>
        <time>2021-02-19T15:38:15+01:00</time>
      </trkpt>
      <trkpt lat="50.08205" lon="3.20591">
        <ele>123</ele>
        <time>2021-02-19T15:38:20+01:00</time>
      </trkpt>
      <trkpt lat="50.08183" lon="3.20591">
        <ele>122</ele>
        <time>2021-02-19T15:38:25+01:00</time>
      </trkpt>
      <trkpt lat="50.08121" lon="3.20605">
        <ele>115</ele>
        <time>2021-02-19T15:38:30+01:00</time>
      </trkpt>
      <trkpt lat="50.08097" lon="3.2058">
        <ele>114</ele>
        <time>2021-02-19T15:38:35+01:00</time>
      </trkpt>
      <trkpt lat="50.08089" lon="3.20543">
        <ele>115</ele>
        <time>2021-02-19T15:38:40+01:00</time>
      </trkpt>
      <trkpt lat="50.08053" lon="3.20476">
        <ele>114</ele>
        <time>2021-02-19T15:38:45+01:00</time>
      </trkpt>
      <trkpt lat="50.08009" lon="3.20398">
        <ele>113</ele>
        <time>2021-02-19T15:38:50+01:00</time>
      </trkpt>
      <trkpt lat="50.0794" lon="3.20293">
        <ele>110</ele>
        <time>2021-02-19T15:38:55+01:00</time>
      </trkpt>
      <trkpt lat="50.079" lon="3.20233">
        <ele>107</ele>
        <time>2021-02-19T15:39:00+01:00</time>
      </trkpt>
      <trkpt lat="50.07896" lon="3.20199">
        <ele>108</ele>
        <time>2021-02-19T15:39:05+01:00</time>
      </trkpt>
      <trkpt lat="50.07872" lon="3.20257">
        <ele>102</ele>
        <time>2021-02-19T15:39:10+01:00</time>
      </trkpt>
      <trkpt lat="50.07856" lon="3.20354">
        <ele>97</ele>
        <time>2021-02-19T15:39:15+01:00</time>
      </trkpt>
      <trkpt lat="50.07838" lon="3.20536">
        <ele>88</ele>
        <time>2021-02-19T15:39:20+01:00</time>
      </trkpt>
      <trkpt lat="50.07801" lon="3.21023">
        <ele>78</ele>
        <time>2021-02-19T15:39:25+01:00</time>
      </trkpt>
      <trkpt lat="50.07795" lon="3.21173">
        <ele>77</ele>
        <time>2021-02-19T15:39:30+01:00</time>
      </trkpt>
      <trkpt lat="50.07804" lon="3.213">
        <ele>79</ele>
        <time>2021-02-19T15:39:35+01:00</time>
      </trkpt>
      <trkpt lat="50.07788" lon="3.21434">
        <ele>79</ele>
        <time>2021-02-19T15:39:40+01:00</time>
      </trkpt>
      <trkpt lat="50.07767" lon="3.21568">
        <ele>76</ele>
        <time>2021-02-19T15:39:45+01:00</time>
      </trkpt>
      <trkpt lat="50.07784" lon="3.21648">
        <ele>75</ele>
        <time>2021-02-19T15:39:50+01:00</time>
      </trkpt>
      <trkpt lat="50.0777" lon="3.21698">
        <ele>74</ele>
        <time>2021-02-19T15:39:55+01:00</time>
      </trkpt>
      <trkpt lat="50.07748" lon="3.21719">
        <ele>73</ele>
        <time>2021-02-19T15:40:00+01:00</time>
      </trkpt>
      <trkpt lat="50.07711" lon="3.21737">
        <ele>74</ele>
        <time>2021-02-19T15:40:05+01:00</time>
      </trkpt>
      <trkpt lat="50.07692" lon="3.2175">
        <ele>75</ele>
        <time>2021-02-19T15:40:10+01:00</time>
      </trkpt>
      <trkpt lat="50.07667" lon="3.21775">
        <ele>75</ele>
        <time>2021-02-19T15:40:15+01:00</time>
      </trkpt>
      <trkpt lat="50.07627" lon="3.21826">
        <ele>74</ele>
        <time>2021-02-19T15:40:20+01:00</time>
      </trkpt>
      <trkpt lat="50.07553" lon="3.21926">
        <ele>74</ele>
        <time>2021-02-19T15:40:25+01:00</time>
      </trkpt>
      <trkpt lat="50.07475" lon="3.22001">
        <ele>80</ele>
        <time>2021-02-19T15:40:30+01:00</time>
      </trkpt>
      <trkpt lat="50.07475" lon="3.22012">
        <ele>81</ele>
        <time>2021-02-19T15:40:35+01:00</time>
      </trkpt>
      <trkpt lat="50.07482" lon="3.22035">
        <ele>81</ele>
        <time>2021-02-19T15:40:40+01:00</time>
      </trkpt>
      <trkpt lat="50.07535" lon="3.22097">
        <ele>80</ele>
        <time>2021-02-19T15:40:45+01:00</time>
      </trkpt>
      <trkpt lat="50.07587" lon="3.22138">
        <ele>76</ele>
        <time>2021-02-19T15:40:50+01:00</time>
      </trkpt>
      <trkpt lat="50.07594" lon="3.22119">
        <ele>76</ele>
        <time>2021-02-19T15:40:55+01:00</time>
      </trkpt>
    </trkseg>
  </trk>
</gpx>